sensor_id;sensor_type;location;lat;lon;timestamp;P1;durP1;ratioP1;P2;durP2;ratioP2
67156;SDS011;54086;50.126;8.710;2024-02-15T00:00:36;15.57;;;9.63;;
67156;SDS011;54086;50.126;8.710;2024-02-15T00:03:02;16.40;;;9.38;;
67156;SDS011;54086;50.126;8.710;2024-02-15T00:05:28;16.33;;;9.15;;
67156;SDS011;54086;50.126;8.710;2024-02-15T00:07:53;16.17;;;9.47;;
67156;SDS011;54086;50.126;8.710;2024-02-15T00:10:19;17.38;;;9.35;;
67156;SDS011;54086;50.126;8.710;2024-02-15T00:12:48;14.83;;;8.60;;
67156;SDS011;54086;50.126;8.710;2024-02-15T00:15:15;14.18;;;8.45;;
67156;SDS011;54086;50.126;8.710;2024-02-15T00:17:40;15.80;;;9.13;;
67156;SDS011;54086;50.126;8.710;2024-02-15T00:20:06;15.02;;;8.93;;
67156;SDS011;54086;50.126;8.710;2024-02-15T00:22:35;16.33;;;8.20;;
67156;SDS011;54086;50.126;8.710;2024-02-15T00:25:01;14.30;;;8.23;;
67156;SDS011;54086;50.126;8.710;2024-02-15T00:27:27;13.93;;;8.23;;
67156;SDS011;54086;50.126;8.710;2024-02-15T00:29:53;13.63;;;7.83;;
67156;SDS011;54086;50.126;8.710;2024-02-15T00:32:18;16.25;;;8.00;;
67156;SDS011;54086;50.126;8.710;2024-02-15T00:34:44;15.23;;;8.13;;
67156;SDS011;54086;50.126;8.710;2024-02-15T00:37:09;15.20;;;7.97;;
67156;SDS011;54086;50.126;8.710;2024-02-15T00:39:34;13.20;;;7.20;;
67156;SDS011;54086;50.126;8.710;2024-02-15T00:42:00;14.07;;;7.88;;
67156;SDS011;54086;50.126;8.710;2024-02-15T00:44:26;13.37;;;7.23;;
67156;SDS011;54086;50.126;8.710;2024-02-15T00:46:52;14.70;;;7.35;;
67156;SDS011;54086;50.126;8.710;2024-02-15T00:49:17;13.87;;;7.80;;
67156;SDS011;54086;50.126;8.710;2024-02-15T00:51:45;14.02;;;7.35;;
67156;SDS011;54086;50.126;8.710;2024-02-15T00:54:12;14.50;;;7.25;;
67156;SDS011;54086;50.126;8.710;2024-02-15T00:56:37;15.33;;;8.10;;
67156;SDS011;54086;50.126;8.710;2024-02-15T00:59:03;17.43;;;7.93;;
67156;SDS011;54086;50.126;8.710;2024-02-15T01:01:30;14.10;;;7.63;;
67156;SDS011;54086;50.126;8.710;2024-02-15T01:03:55;14.47;;;7.30;;
67156;SDS011;54086;50.126;8.710;2024-02-15T01:06:21;14.15;;;8.27;;
67156;SDS011;54086;50.126;8.710;2024-02-15T01:08:47;16.83;;;7.27;;
67156;SDS011;54086;50.126;8.710;2024-02-15T01:11:12;16.00;;;7.87;;
67156;SDS011;54086;50.126;8.710;2024-02-15T01:13:38;13.82;;;7.90;;
67156;SDS011;54086;50.126;8.710;2024-02-15T01:16:04;12.30;;;7.70;;
67156;SDS011;54086;50.126;8.710;2024-02-15T01:18:31;14.67;;;7.40;;
67156;SDS011;54086;50.126;8.710;2024-02-15T01:20:57;13.35;;;7.05;;
67156;SDS011;54086;50.126;8.710;2024-02-15T01:23:22;13.00;;;7.33;;
67156;SDS011;54086;50.126;8.710;2024-02-15T01:25:48;12.63;;;7.13;;
67156;SDS011;54086;50.126;8.710;2024-02-15T01:28:14;14.32;;;7.22;;
67156;SDS011;54086;50.126;8.710;2024-02-15T01:30:39;10.90;;;6.63;;
67156;SDS011;54086;50.126;8.710;2024-02-15T01:33:05;13.05;;;7.10;;
67156;SDS011;54086;50.126;8.710;2024-02-15T01:35:30;12.63;;;6.60;;
67156;SDS011;54086;50.126;8.710;2024-02-15T01:37:56;14.30;;;6.57;;
67156;SDS011;54086;50.126;8.710;2024-02-15T01:40:21;12.38;;;6.10;;
67156;SDS011;54086;50.126;8.710;2024-02-15T01:42:47;14.57;;;5.93;;
67156;SDS011;54086;50.126;8.710;2024-02-15T01:45:14;10.25;;;5.72;;
67156;SDS011;54086;50.126;8.710;2024-02-15T01:47:40;9.87;;;5.50;;
67156;SDS011;54086;50.126;8.710;2024-02-15T01:50:07;11.40;;;5.73;;
67156;SDS011;54086;50.126;8.710;2024-02-15T01:52:35;11.48;;;6.03;;
67156;SDS011;54086;50.126;8.710;2024-02-15T01:55:02;12.25;;;5.82;;
67156;SDS011;54086;50.126;8.710;2024-02-15T01:57:33;10.90;;;5.97;;
67156;SDS011;54086;50.126;8.710;2024-02-15T02:00:05;11.85;;;5.53;;
67156;SDS011;54086;50.126;8.710;2024-02-15T02:02:32;12.60;;;5.80;;
67156;SDS011;54086;50.126;8.710;2024-02-15T02:04:59;11.77;;;5.80;;
67156;SDS011;54086;50.126;8.710;2024-02-15T02:07:24;10.70;;;5.67;;
67156;SDS011;54086;50.126;8.710;2024-02-15T02:09:49;10.80;;;5.80;;
67156;SDS011;54086;50.126;8.710;2024-02-15T02:12:15;10.70;;;5.60;;
67156;SDS011;54086;50.126;8.710;2024-02-15T02:14:59;10.15;;;5.70;;
67156;SDS011;54086;50.126;8.710;2024-02-15T02:17:54;10.93;;;5.77;;
67156;SDS011;54086;50.126;8.710;2024-02-15T02:20:19;11.02;;;5.65;;
67156;SDS011;54086;50.126;8.710;2024-02-15T02:22:45;11.93;;;5.73;;
67156;SDS011;54086;50.126;8.710;2024-02-15T02:25:13;12.20;;;5.88;;
67156;SDS011;54086;50.126;8.710;2024-02-15T02:27:38;13.13;;;5.80;;
67156;SDS011;54086;50.126;8.710;2024-02-15T02:30:04;11.27;;;5.32;;
67156;SDS011;54086;50.126;8.710;2024-02-15T02:32:41;11.30;;;5.73;;
67156;SDS011;54086;50.126;8.710;2024-02-15T02:35:06;10.80;;;5.55;;
67156;SDS011;54086;50.126;8.710;2024-02-15T02:37:32;11.30;;;5.55;;
67156;SDS011;54086;50.126;8.710;2024-02-15T02:40:00;10.05;;;5.00;;
67156;SDS011;54086;50.126;8.710;2024-02-15T02:42:25;10.70;;;5.93;;
67156;SDS011;54086;50.126;8.710;2024-02-15T02:44:51;12.37;;;5.40;;
67156;SDS011;54086;50.126;8.710;2024-02-15T02:47:16;11.47;;;5.30;;
67156;SDS011;54086;50.126;8.710;2024-02-15T02:49:41;11.45;;;5.15;;
67156;SDS011;54086;50.126;8.710;2024-02-15T02:52:07;11.50;;;5.50;;
67156;SDS011;54086;50.126;8.710;2024-02-15T02:54:32;11.43;;;5.87;;
67156;SDS011;54086;50.126;8.710;2024-02-15T02:56:58;14.35;;;7.00;;
67156;SDS011;54086;50.126;8.710;2024-02-15T02:59:24;11.10;;;5.33;;
67156;SDS011;54086;50.126;8.710;2024-02-15T03:01:50;10.23;;;5.10;;
67156;SDS011;54086;50.126;8.710;2024-02-15T03:04:16;9.20;;;5.13;;
67156;SDS011;54086;50.126;8.710;2024-02-15T03:06:43;13.93;;;5.23;;
67156;SDS011;54086;50.126;8.710;2024-02-15T03:09:09;10.30;;;5.00;;
67156;SDS011;54086;50.126;8.710;2024-02-15T03:11:36;10.27;;;5.13;;
67156;SDS011;54086;50.126;8.710;2024-02-15T03:14:02;10.25;;;5.20;;
67156;SDS011;54086;50.126;8.710;2024-02-15T03:16:30;11.65;;;4.88;;
67156;SDS011;54086;50.126;8.710;2024-02-15T03:18:56;10.02;;;5.00;;
67156;SDS011;54086;50.126;8.710;2024-02-15T03:21:22;9.43;;;4.60;;
67156;SDS011;54086;50.126;8.710;2024-02-15T03:23:47;10.00;;;5.13;;
67156;SDS011;54086;50.126;8.710;2024-02-15T03:26:12;9.30;;;5.00;;
67156;SDS011;54086;50.126;8.710;2024-02-15T03:28:39;10.13;;;4.80;;
67156;SDS011;54086;50.126;8.710;2024-02-15T03:31:04;11.27;;;4.80;;
67156;SDS011;54086;50.126;8.710;2024-02-15T03:33:29;10.97;;;5.07;;
67156;SDS011;54086;50.126;8.710;2024-02-15T03:35:59;10.20;;;5.18;;
67156;SDS011;54086;50.126;8.710;2024-02-15T03:38:26;10.03;;;5.00;;
67156;SDS011;54086;50.126;8.710;2024-02-15T03:40:54;10.10;;;4.55;;
67156;SDS011;54086;50.126;8.710;2024-02-15T03:43:20;10.35;;;5.18;;
67156;SDS011;54086;50.126;8.710;2024-02-15T03:45:45;10.80;;;5.27;;
67156;SDS011;54086;50.126;8.710;2024-02-15T03:48:10;9.17;;;4.53;;
67156;SDS011;54086;50.126;8.710;2024-02-15T03:50:37;10.85;;;5.18;;
67156;SDS011;54086;50.126;8.710;2024-02-15T03:53:03;12.50;;;5.45;;
67156;SDS011;54086;50.126;8.710;2024-02-15T03:55:29;10.23;;;4.93;;
67156;SDS011;54086;50.126;8.710;2024-02-15T03:57:54;12.23;;;5.20;;
67156;SDS011;54086;50.126;8.710;2024-02-15T04:00:21;11.10;;;5.07;;
67156;SDS011;54086;50.126;8.710;2024-02-15T04:02:46;10.10;;;4.93;;
67156;SDS011;54086;50.126;8.710;2024-02-15T04:05:14;11.32;;;5.43;;
67156;SDS011;54086;50.126;8.710;2024-02-15T04:07:40;10.63;;;5.13;;
67156;SDS011;54086;50.126;8.710;2024-02-15T04:10:06;10.40;;;4.93;;
67156;SDS011;54086;50.126;8.710;2024-02-15T04:12:33;8.98;;;4.60;;
67156;SDS011;54086;50.126;8.710;2024-02-15T04:14:58;11.77;;;5.37;;
67156;SDS011;54086;50.126;8.710;2024-02-15T04:17:36;9.75;;;4.63;;
67156;SDS011;54086;50.126;8.710;2024-02-15T04:20:02;8.45;;;4.32;;
67156;SDS011;54086;50.126;8.710;2024-02-15T04:22:29;11.52;;;4.70;;
67156;SDS011;54086;50.126;8.710;2024-02-15T04:24:56;11.33;;;5.20;;
67156;SDS011;54086;50.126;8.710;2024-02-15T04:27:22;9.90;;;5.25;;
67156;SDS011;54086;50.126;8.710;2024-02-15T04:29:47;11.53;;;4.87;;
67156;SDS011;54086;50.126;8.710;2024-02-15T04:32:13;9.90;;;5.40;;
67156;SDS011;54086;50.126;8.710;2024-02-15T04:34:38;10.23;;;4.63;;
67156;SDS011;54086;50.126;8.710;2024-02-15T04:37:05;10.52;;;4.80;;
67156;SDS011;54086;50.126;8.710;2024-02-15T04:39:34;10.77;;;5.13;;
67156;SDS011;54086;50.126;8.710;2024-02-15T04:42:00;9.40;;;4.95;;
67156;SDS011;54086;50.126;8.710;2024-02-15T04:44:27;12.10;;;5.10;;
67156;SDS011;54086;50.126;8.710;2024-02-15T04:46:55;10.40;;;4.53;;
67156;SDS011;54086;50.126;8.710;2024-02-15T04:49:20;11.02;;;4.65;;
67156;SDS011;54086;50.126;8.710;2024-02-15T04:51:46;11.17;;;4.70;;
67156;SDS011;54086;50.126;8.710;2024-02-15T04:54:12;10.43;;;5.20;;
67156;SDS011;54086;50.126;8.710;2024-02-15T04:56:41;11.17;;;4.70;;
67156;SDS011;54086;50.126;8.710;2024-02-15T04:59:07;11.73;;;4.55;;
67156;SDS011;54086;50.126;8.710;2024-02-15T05:01:36;10.05;;;5.13;;
67156;SDS011;54086;50.126;8.710;2024-02-15T05:04:02;9.00;;;4.53;;
67156;SDS011;54086;50.126;8.710;2024-02-15T05:06:32;10.02;;;4.72;;
67156;SDS011;54086;50.126;8.710;2024-02-15T05:08:57;9.63;;;4.38;;
67156;SDS011;54086;50.126;8.710;2024-02-15T05:11:24;10.52;;;4.78;;
67156;SDS011;54086;50.126;8.710;2024-02-15T05:13:50;10.70;;;4.40;;
67156;SDS011;54086;50.126;8.710;2024-02-15T05:16:16;9.83;;;4.40;;
67156;SDS011;54086;50.126;8.710;2024-02-15T05:18:41;12.18;;;4.53;;
67156;SDS011;54086;50.126;8.710;2024-02-15T05:21:07;11.33;;;4.43;;
67156;SDS011;54086;50.126;8.710;2024-02-15T05:23:35;10.30;;;4.65;;
67156;SDS011;54086;50.126;8.710;2024-02-15T05:26:08;20.27;;;8.55;;
67156;SDS011;54086;50.126;8.710;2024-02-15T05:28:34;10.33;;;4.40;;
67156;SDS011;54086;50.126;8.710;2024-02-15T05:33:39;9.98;;;4.10;;
67156;SDS011;54086;50.126;8.710;2024-02-15T05:36:08;12.20;;;4.70;;
67156;SDS011;54086;50.126;8.710;2024-02-15T05:38:35;11.77;;;5.10;;
67156;SDS011;54086;50.126;8.710;2024-02-15T05:41:01;10.13;;;4.60;;
67156;SDS011;54086;50.126;8.710;2024-02-15T05:43:27;10.18;;;4.88;;
67156;SDS011;54086;50.126;8.710;2024-02-15T05:45:53;10.63;;;4.60;;
67156;SDS011;54086;50.126;8.710;2024-02-15T05:48:18;9.27;;;4.30;;
67156;SDS011;54086;50.126;8.710;2024-02-15T05:50:44;11.60;;;3.97;;
67156;SDS011;54086;50.126;8.710;2024-02-15T05:53:09;12.57;;;4.70;;
67156;SDS011;54086;50.126;8.710;2024-02-15T05:55:35;12.70;;;4.87;;
67156;SDS011;54086;50.126;8.710;2024-02-15T05:58:02;10.27;;;4.20;;
67156;SDS011;54086;50.126;8.710;2024-02-15T06:00:28;10.45;;;4.13;;
67156;SDS011;54086;50.126;8.710;2024-02-15T06:02:55;10.63;;;4.18;;
67156;SDS011;54086;50.126;8.710;2024-02-15T06:05:20;10.27;;;4.10;;
67156;SDS011;54086;50.126;8.710;2024-02-15T06:07:46;8.48;;;4.25;;
67156;SDS011;54086;50.126;8.710;2024-02-15T06:10:12;10.43;;;4.07;;
67156;SDS011;54086;50.126;8.710;2024-02-15T06:12:38;8.05;;;3.70;;
67156;SDS011;54086;50.126;8.710;2024-02-15T06:15:04;11.90;;;3.90;;
67156;SDS011;54086;50.126;8.710;2024-02-15T06:17:30;10.23;;;4.20;;
67156;SDS011;54086;50.126;8.710;2024-02-15T06:19:56;9.77;;;3.77;;
67156;SDS011;54086;50.126;8.710;2024-02-15T06:22:22;8.37;;;3.60;;
67156;SDS011;54086;50.126;8.710;2024-02-15T06:24:47;9.13;;;3.67;;
67156;SDS011;54086;50.126;8.710;2024-02-15T06:27:13;9.67;;;4.10;;
67156;SDS011;54086;50.126;8.710;2024-02-15T06:29:40;8.15;;;3.88;;
67156;SDS011;54086;50.126;8.710;2024-02-15T06:32:24;9.43;;;4.15;;
67156;SDS011;54086;50.126;8.710;2024-02-15T06:35:08;8.47;;;3.70;;
67156;SDS011;54086;50.126;8.710;2024-02-15T06:37:52;9.93;;;4.13;;
67156;SDS011;54086;50.126;8.710;2024-02-15T06:40:36;9.35;;;4.50;;
67156;SDS011;54086;50.126;8.710;2024-02-15T06:43:02;12.43;;;4.80;;
67156;SDS011;54086;50.126;8.710;2024-02-15T06:45:28;11.85;;;4.82;;
67156;SDS011;54086;50.126;8.710;2024-02-15T06:47:57;11.85;;;4.68;;
67156;SDS011;54086;50.126;8.710;2024-02-15T06:50:22;11.83;;;4.33;;
67156;SDS011;54086;50.126;8.710;2024-02-15T06:52:48;11.73;;;4.47;;
67156;SDS011;54086;50.126;8.710;2024-02-15T06:55:14;12.10;;;5.00;;
67156;SDS011;54086;50.126;8.710;2024-02-15T06:57:40;12.02;;;5.10;;
67156;SDS011;54086;50.126;8.710;2024-02-15T07:00:06;9.53;;;4.53;;
67156;SDS011;54086;50.126;8.710;2024-02-15T07:02:35;14.25;;;5.50;;
67156;SDS011;54086;50.126;8.710;2024-02-15T07:05:01;11.35;;;4.63;;
67156;SDS011;54086;50.126;8.710;2024-02-15T07:07:28;10.63;;;4.90;;
67156;SDS011;54086;50.126;8.710;2024-02-15T07:09:53;11.33;;;5.03;;
67156;SDS011;54086;50.126;8.710;2024-02-15T07:12:19;10.68;;;4.72;;
67156;SDS011;54086;50.126;8.710;2024-02-15T07:14:46;10.75;;;4.97;;
67156;SDS011;54086;50.126;8.710;2024-02-15T07:17:12;12.40;;;4.97;;
67156;SDS011;54086;50.126;8.710;2024-02-15T07:19:37;11.90;;;5.00;;
67156;SDS011;54086;50.126;8.710;2024-02-15T07:22:03;12.43;;;5.65;;
67156;SDS011;54086;50.126;8.710;2024-02-15T07:24:28;10.83;;;4.77;;
67156;SDS011;54086;50.126;8.710;2024-02-15T07:26:54;13.02;;;5.00;;
67156;SDS011;54086;50.126;8.710;2024-02-15T07:29:22;13.07;;;5.00;;
67156;SDS011;54086;50.126;8.710;2024-02-15T07:31:49;12.77;;;4.75;;
67156;SDS011;54086;50.126;8.710;2024-02-15T07:34:14;12.00;;;4.85;;
67156;SDS011;54086;50.126;8.710;2024-02-15T07:36:40;13.00;;;4.83;;
67156;SDS011;54086;50.126;8.710;2024-02-15T07:39:07;9.95;;;4.72;;
67156;SDS011;54086;50.126;8.710;2024-02-15T07:41:37;9.27;;;4.80;;
67156;SDS011;54086;50.126;8.710;2024-02-15T07:44:03;11.55;;;4.75;;
67156;SDS011;54086;50.126;8.710;2024-02-15T07:46:29;10.70;;;4.53;;
67156;SDS011;54086;50.126;8.710;2024-02-15T07:48:55;13.38;;;4.45;;
67156;SDS011;54086;50.126;8.710;2024-02-15T07:51:21;13.73;;;4.37;;
67156;SDS011;54086;50.126;8.710;2024-02-15T07:53:48;11.63;;;4.47;;
67156;SDS011;54086;50.126;8.710;2024-02-15T07:56:15;10.45;;;4.93;;
67156;SDS011;54086;50.126;8.710;2024-02-15T08:01:13;9.55;;;3.95;;
67156;SDS011;54086;50.126;8.710;2024-02-15T08:03:39;9.50;;;4.13;;
67156;SDS011;54086;50.126;8.710;2024-02-15T08:06:11;11.52;;;4.55;;
67156;SDS011;54086;50.126;8.710;2024-02-15T08:08:38;12.57;;;4.55;;
67156;SDS011;54086;50.126;8.710;2024-02-15T08:11:06;11.75;;;4.30;;
67156;SDS011;54086;50.126;8.710;2024-02-15T08:13:35;10.98;;;4.50;;
67156;SDS011;54086;50.126;8.710;2024-02-15T08:16:03;9.17;;;4.50;;
67156;SDS011;54086;50.126;8.710;2024-02-15T08:18:30;11.27;;;3.92;;
67156;SDS011;54086;50.126;8.710;2024-02-15T08:20:56;10.50;;;4.47;;
67156;SDS011;54086;50.126;8.710;2024-02-15T08:23:22;9.25;;;4.15;;
67156;SDS011;54086;50.126;8.710;2024-02-15T08:25:47;10.67;;;4.10;;
67156;SDS011;54086;50.126;8.710;2024-02-15T08:28:13;9.98;;;4.10;;
67156;SDS011;54086;50.126;8.710;2024-02-15T08:30:38;11.50;;;4.43;;
67156;SDS011;54086;50.126;8.710;2024-02-15T08:33:04;13.20;;;4.80;;
67156;SDS011;54086;50.126;8.710;2024-02-15T08:35:29;11.30;;;4.47;;
67156;SDS011;54086;50.126;8.710;2024-02-15T08:37:54;9.33;;;4.20;;
67156;SDS011;54086;50.126;8.710;2024-02-15T08:40:22;11.43;;;4.40;;
67156;SDS011;54086;50.126;8.710;2024-02-15T08:42:53;9.90;;;4.00;;
67156;SDS011;54086;50.126;8.710;2024-02-15T08:45:21;10.60;;;4.50;;
67156;SDS011;54086;50.126;8.710;2024-02-15T08:47:46;8.43;;;3.90;;
67156;SDS011;54086;50.126;8.710;2024-02-15T08:50:14;10.20;;;4.10;;
67156;SDS011;54086;50.126;8.710;2024-02-15T08:52:40;8.47;;;3.70;;
67156;SDS011;54086;50.126;8.710;2024-02-15T08:55:06;9.90;;;4.30;;
67156;SDS011;54086;50.126;8.710;2024-02-15T08:57:34;8.98;;;4.00;;
67156;SDS011;54086;50.126;8.710;2024-02-15T08:59:59;10.03;;;4.07;;
67156;SDS011;54086;50.126;8.710;2024-02-15T09:02:25;9.38;;;3.88;;
67156;SDS011;54086;50.126;8.710;2024-02-15T09:04:50;10.10;;;4.10;;
67156;SDS011;54086;50.126;8.710;2024-02-15T09:07:16;9.80;;;3.90;;
67156;SDS011;54086;50.126;8.710;2024-02-15T09:09:41;8.50;;;3.58;;
67156;SDS011;54086;50.126;8.710;2024-02-15T09:12:07;9.57;;;4.13;;
67156;SDS011;54086;50.126;8.710;2024-02-15T09:14:33;9.77;;;4.07;;
67156;SDS011;54086;50.126;8.710;2024-02-15T09:17:00;8.30;;;3.75;;
67156;SDS011;54086;50.126;8.710;2024-02-15T09:19:25;8.53;;;3.40;;
67156;SDS011;54086;50.126;8.710;2024-02-15T09:21:51;10.38;;;4.10;;
67156;SDS011;54086;50.126;8.710;2024-02-15T09:24:16;7.67;;;3.70;;
67156;SDS011;54086;50.126;8.710;2024-02-15T09:26:42;10.00;;;3.40;;
67156;SDS011;54086;50.126;8.710;2024-02-15T09:29:09;6.85;;;3.17;;
67156;SDS011;54086;50.126;8.710;2024-02-15T09:31:35;7.95;;;3.35;;
67156;SDS011;54086;50.126;8.710;2024-02-15T09:34:30;9.07;;;3.60;;
67156;SDS011;54086;50.126;8.710;2024-02-15T09:36:55;8.93;;;3.22;;
67156;SDS011;54086;50.126;8.710;2024-02-15T09:39:31;9.90;;;4.50;;
67156;SDS011;54086;50.126;8.710;2024-02-15T09:42:06;9.45;;;3.10;;
67156;SDS011;54086;50.126;8.710;2024-02-15T09:44:34;7.80;;;3.10;;
67156;SDS011;54086;50.126;8.710;2024-02-15T09:47:03;8.50;;;3.30;;
67156;SDS011;54086;50.126;8.710;2024-02-15T09:49:46;7.88;;;3.10;;
67156;SDS011;54086;50.126;8.710;2024-02-15T09:52:21;11.50;;;3.35;;
67156;SDS011;54086;50.126;8.710;2024-02-15T09:55:20;10.80;;;3.27;;
67156;SDS011;54086;50.126;8.710;2024-02-15T09:57:49;9.35;;;3.17;;
67156;SDS011;54086;50.126;8.710;2024-02-15T10:00:16;12.25;;;3.85;;
67156;SDS011;54086;50.126;8.710;2024-02-15T10:02:50;11.25;;;3.45;;
67156;SDS011;54086;50.126;8.710;2024-02-15T10:05:17;10.93;;;3.05;;
67156;SDS011;54086;50.126;8.710;2024-02-15T10:07:43;11.00;;;3.47;;
67156;SDS011;54086;50.126;8.710;2024-02-15T10:10:16;10.23;;;3.20;;
67156;SDS011;54086;50.126;8.710;2024-02-15T10:12:44;10.70;;;3.30;;
67156;SDS011;54086;50.126;8.710;2024-02-15T10:15:37;9.50;;;3.13;;
67156;SDS011;54086;50.126;8.710;2024-02-15T10:18:06;8.57;;;3.35;;
67156;SDS011;54086;50.126;8.710;2024-02-15T10:20:41;11.32;;;3.17;;
67156;SDS011;54086;50.126;8.710;2024-02-15T10:23:10;8.68;;;3.83;;
67156;SDS011;54086;50.126;8.710;2024-02-15T10:25:37;10.32;;;3.50;;
67156;SDS011;54086;50.126;8.710;2024-02-15T10:28:10;7.77;;;3.10;;
67156;SDS011;54086;50.126;8.710;2024-02-15T10:30:37;9.02;;;2.95;;
67156;SDS011;54086;50.126;8.710;2024-02-15T10:33:08;8.85;;;3.28;;
67156;SDS011;54086;50.126;8.710;2024-02-15T10:35:34;8.25;;;3.45;;
67156;SDS011;54086;50.126;8.710;2024-02-15T10:38:19;9.10;;;3.38;;
67156;SDS011;54086;50.126;8.710;2024-02-15T10:40:52;8.03;;;3.23;;
67156;SDS011;54086;50.126;8.710;2024-02-15T10:43:29;9.45;;;3.50;;
67156;SDS011;54086;50.126;8.710;2024-02-15T10:45:55;10.20;;;3.38;;
67156;SDS011;54086;50.126;8.710;2024-02-15T10:48:22;10.32;;;4.70;;
67156;SDS011;54086;50.126;8.710;2024-02-15T10:50:50;10.07;;;3.43;;
67156;SDS011;54086;50.126;8.710;2024-02-15T10:53:26;8.10;;;3.10;;
67156;SDS011;54086;50.126;8.710;2024-02-15T10:56:06;7.90;;;2.95;;
67156;SDS011;54086;50.126;8.710;2024-02-15T10:58:51;10.18;;;3.55;;
67156;SDS011;54086;50.126;8.710;2024-02-15T11:01:25;10.60;;;3.30;;
67156;SDS011;54086;50.126;8.710;2024-02-15T11:03:59;8.83;;;3.43;;
67156;SDS011;54086;50.126;8.710;2024-02-15T11:06:26;9.65;;;3.72;;
67156;SDS011;54086;50.126;8.710;2024-02-15T11:08:52;9.50;;;3.40;;
67156;SDS011;54086;50.126;8.710;2024-02-15T11:11:18;8.98;;;3.40;;
67156;SDS011;54086;50.126;8.710;2024-02-15T11:13:45;10.77;;;3.63;;
67156;SDS011;54086;50.126;8.710;2024-02-15T11:21:59;8.68;;;2.83;;
67156;SDS011;54086;50.126;8.710;2024-02-15T11:24:28;8.15;;;2.88;;
67156;SDS011;54086;50.126;8.710;2024-02-15T11:27:00;8.90;;;3.42;;
67156;SDS011;54086;50.126;8.710;2024-02-15T11:35:14;8.70;;;2.75;;
67156;SDS011;54086;50.126;8.710;2024-02-15T11:40:17;8.30;;;2.65;;
67156;SDS011;54086;50.126;8.710;2024-02-15T11:42:43;8.53;;;2.53;;
67156;SDS011;54086;50.126;8.710;2024-02-15T11:45:09;7.65;;;2.40;;
67156;SDS011;54086;50.126;8.710;2024-02-15T11:47:38;7.85;;;2.50;;
67156;SDS011;54086;50.126;8.710;2024-02-15T11:50:09;10.83;;;2.43;;
67156;SDS011;54086;50.126;8.710;2024-02-15T11:52:40;10.40;;;2.30;;
67156;SDS011;54086;50.126;8.710;2024-02-15T11:55:07;8.23;;;2.60;;
67156;SDS011;54086;50.126;8.710;2024-02-15T11:57:36;7.65;;;2.40;;
67156;SDS011;54086;50.126;8.710;2024-02-15T12:00:18;10.10;;;3.13;;
67156;SDS011;54086;50.126;8.710;2024-02-15T12:03:08;7.97;;;2.33;;
67156;SDS011;54086;50.126;8.710;2024-02-15T12:05:56;7.88;;;2.10;;
67156;SDS011;54086;50.126;8.710;2024-02-15T12:08:43;7.82;;;2.70;;
67156;SDS011;54086;50.126;8.710;2024-02-15T12:11:28;7.68;;;2.10;;
67156;SDS011;54086;50.126;8.710;2024-02-15T12:14:12;7.43;;;2.60;;
67156;SDS011;54086;50.126;8.710;2024-02-15T12:19:55;10.07;;;2.47;;
67156;SDS011;54086;50.126;8.710;2024-02-15T12:23:04;8.07;;;2.53;;
67156;SDS011;54086;50.126;8.710;2024-02-15T12:25:15;10.13;;;3.10;;
67156;SDS011;54086;50.126;8.710;2024-02-15T12:27:42;8.23;;;2.05;;
67156;SDS011;54086;50.126;8.710;2024-02-15T12:30:17;7.40;;;2.27;;
67156;SDS011;54086;50.126;8.710;2024-02-15T12:32:46;7.07;;;1.92;;
67156;SDS011;54086;50.126;8.710;2024-02-15T12:35:21;6.32;;;2.13;;
67156;SDS011;54086;50.126;8.710;2024-02-15T12:38:01;7.80;;;2.25;;
67156;SDS011;54086;50.126;8.710;2024-02-15T12:40:30;5.85;;;1.67;;
67156;SDS011;54086;50.126;8.710;2024-02-15T12:42:57;6.73;;;1.67;;
67156;SDS011;54086;50.126;8.710;2024-02-15T12:45:24;8.13;;;2.42;;
67156;SDS011;54086;50.126;8.710;2024-02-15T12:47:52;7.35;;;2.25;;
67156;SDS011;54086;50.126;8.710;2024-02-15T12:50:37;8.37;;;2.70;;
67156;SDS011;54086;50.126;8.710;2024-02-15T12:53:03;6.55;;;2.35;;
67156;SDS011;54086;50.126;8.710;2024-02-15T12:55:31;8.77;;;2.22;;
67156;SDS011;54086;50.126;8.710;2024-02-15T12:57:59;8.25;;;2.13;;
67156;SDS011;54086;50.126;8.710;2024-02-15T13:00:29;6.28;;;1.98;;
67156;SDS011;54086;50.126;8.710;2024-02-15T13:03:04;7.30;;;2.97;;
67156;SDS011;54086;50.126;8.710;2024-02-15T13:05:30;8.60;;;2.50;;
67156;SDS011;54086;50.126;8.710;2024-02-15T13:07:56;9.50;;;2.85;;
67156;SDS011;54086;50.126;8.710;2024-02-15T13:10:27;7.30;;;2.40;;
67156;SDS011;54086;50.126;8.710;2024-02-15T13:12:54;10.87;;;2.37;;
67156;SDS011;54086;50.126;8.710;2024-02-15T13:15:21;5.80;;;2.00;;
67156;SDS011;54086;50.126;8.710;2024-02-15T13:17:52;7.43;;;2.28;;
67156;SDS011;54086;50.126;8.710;2024-02-15T13:20:21;11.43;;;2.17;;
67156;SDS011;54086;50.126;8.710;2024-02-15T13:22:57;8.70;;;2.33;;
67156;SDS011;54086;50.126;8.710;2024-02-15T13:25:25;11.60;;;3.00;;
67156;SDS011;54086;50.126;8.710;2024-02-15T13:27:51;7.55;;;2.65;;
67156;SDS011;54086;50.126;8.710;2024-02-15T13:30:17;6.55;;;1.90;;
67156;SDS011;54086;50.126;8.710;2024-02-15T13:32:48;8.18;;;2.10;;
67156;SDS011;54086;50.126;8.710;2024-02-15T13:35:15;6.93;;;2.00;;
67156;SDS011;54086;50.126;8.710;2024-02-15T13:37:51;7.00;;;2.20;;
67156;SDS011;54086;50.126;8.710;2024-02-15T13:40:18;7.10;;;2.17;;
67156;SDS011;54086;50.126;8.710;2024-02-15T13:42:48;8.15;;;2.72;;
67156;SDS011;54086;50.126;8.710;2024-02-15T13:45:17;8.23;;;3.20;;
67156;SDS011;54086;50.126;8.710;2024-02-15T13:47:52;8.57;;;3.20;;
67156;SDS011;54086;50.126;8.710;2024-02-15T13:50:18;12.27;;;3.42;;
67156;SDS011;54086;50.126;8.710;2024-02-15T13:52:44;11.13;;;2.88;;
67156;SDS011;54086;50.126;8.710;2024-02-15T13:55:14;9.45;;;3.05;;
67156;SDS011;54086;50.126;8.710;2024-02-15T13:57:40;8.53;;;2.50;;
67156;SDS011;54086;50.126;8.710;2024-02-15T14:00:10;8.65;;;1.98;;
67156;SDS011;54086;50.126;8.710;2024-02-15T14:02:42;6.40;;;2.05;;
67156;SDS011;54086;50.126;8.710;2024-02-15T14:05:09;9.02;;;2.33;;
67156;SDS011;54086;50.126;8.710;2024-02-15T14:07:36;7.30;;;2.05;;
67156;SDS011;54086;50.126;8.710;2024-02-15T14:10:03;7.50;;;2.43;;
67156;SDS011;54086;50.126;8.710;2024-02-15T14:12:29;8.63;;;2.85;;
67156;SDS011;54086;50.126;8.710;2024-02-15T14:14:55;8.30;;;2.57;;
67156;SDS011;54086;50.126;8.710;2024-02-15T14:17:21;7.68;;;2.75;;
67156;SDS011;54086;50.126;8.710;2024-02-15T14:19:47;8.68;;;2.83;;
67156;SDS011;54086;50.126;8.710;2024-02-15T14:22:13;7.87;;;2.20;;
67156;SDS011;54086;50.126;8.710;2024-02-15T14:24:44;6.70;;;2.10;;
67156;SDS011;54086;50.126;8.710;2024-02-15T14:27:10;7.35;;;2.40;;
67156;SDS011;54086;50.126;8.710;2024-02-15T14:29:36;7.32;;;2.28;;
67156;SDS011;54086;50.126;8.710;2024-02-15T14:32:09;8.30;;;1.90;;
67156;SDS011;54086;50.126;8.710;2024-02-15T14:34:54;7.72;;;2.10;;
67156;SDS011;54086;50.126;8.710;2024-02-15T14:37:21;7.38;;;2.20;;
67156;SDS011;54086;50.126;8.710;2024-02-15T14:39:47;8.18;;;2.10;;
67156;SDS011;54086;50.126;8.710;2024-02-15T14:42:12;8.90;;;2.47;;
67156;SDS011;54086;50.126;8.710;2024-02-15T14:44:39;7.63;;;2.75;;
67156;SDS011;54086;50.126;8.710;2024-02-15T14:47:04;9.47;;;2.70;;
67156;SDS011;54086;50.126;8.710;2024-02-15T14:49:30;7.93;;;2.67;;
67156;SDS011;54086;50.126;8.710;2024-02-15T14:51:56;12.60;;;4.60;;
67156;SDS011;54086;50.126;8.710;2024-02-15T14:54:21;13.63;;;4.78;;
67156;SDS011;54086;50.126;8.710;2024-02-15T14:56:47;11.43;;;3.57;;
67156;SDS011;54086;50.126;8.710;2024-02-15T14:59:13;9.07;;;2.78;;
67156;SDS011;54086;50.126;8.710;2024-02-15T15:01:40;11.33;;;2.50;;
67156;SDS011;54086;50.126;8.710;2024-02-15T15:04:06;8.82;;;2.72;;
67156;SDS011;54086;50.126;8.710;2024-02-15T15:06:33;8.00;;;2.88;;
67156;SDS011;54086;50.126;8.710;2024-02-15T15:09:17;9.07;;;2.88;;